sensor_id;sensor_type;location;lat;lon;timestamp;pressure;altitude;pressure_sealevel;temperature
40047;BMP280;31510;48.122;11.576;2022-07-24T00:00:07;96008.41;;;22.43
40047;BMP280;31510;48.122;11.576;2022-07-24T00:02:33;96010.88;;;22.41
40047;BMP280;31510;48.122;11.576;2022-07-24T00:04:58;96005.22;;;22.39
40047;BMP280;31510;48.122;11.576;2022-07-24T00:07:25;96012.13;;;22.40
40047;BMP280;31510;48.122;11.576;2022-07-24T00:09:50;96005.97;;;22.40
40047;BMP280;31510;48.122;11.576;2022-07-24T00:12:16;96009.41;;;22.40
40047;BMP280;31510;48.122;11.576;2022-07-24T00:14:41;96017.06;;;22.42
40047;BMP280;31510;48.122;11.576;2022-07-24T00:17:06;96010.88;;;22.41
40047;BMP280;31510;48.122;11.576;2022-07-24T00:19:32;96011.91;;;22.38
40047;BMP280;31510;48.122;11.576;2022-07-24T00:21:57;96006.00;;;22.34
40047;BMP280;31510;48.122;11.576;2022-07-24T00:24:24;96011.94;;;22.33
40047;BMP280;31510;48.122;11.576;2022-07-24T00:26:50;96010.47;;;22.32
40047;BMP280;31510;48.122;11.576;2022-07-24T00:29:15;96010.75;;;22.28
40047;BMP280;31510;48.122;11.576;2022-07-24T00:31:40;96006.28;;;22.31
40047;BMP280;31510;48.122;11.576;2022-07-24T00:34:06;96003.34;;;22.29
40047;BMP280;31510;48.122;11.576;2022-07-24T00:36:31;95999.13;;;22.28
40047;BMP280;31510;48.122;11.576;2022-07-24T00:38:56;96008.53;;;22.27
40047;BMP280;31510;48.122;11.576;2022-07-24T00:41:21;96000.16;;;22.25
40047;BMP280;31510;48.122;11.576;2022-07-24T00:44:14;96005.13;;;22.21
40047;BMP280;31510;48.122;11.576;2022-07-24T00:46:43;96009.81;;;22.20
40047;BMP280;31510;48.122;11.576;2022-07-24T00:49:14;96000.19;;;22.19
40047;BMP280;31510;48.122;11.576;2022-07-24T00:51:41;96006.16;;;22.18
40047;BMP280;31510;48.122;11.576;2022-07-24T00:54:08;96017.50;;;22.16
40047;BMP280;31510;48.122;11.576;2022-07-24T00:56:33;96012.56;;;22.15
40047;BMP280;31510;48.122;11.576;2022-07-24T00:59:03;96010.34;;;22.13
40047;BMP280;31510;48.122;11.576;2022-07-24T01:01:29;96002.19;;;22.13
40047;BMP280;31510;48.122;11.576;2022-07-24T01:03:56;96009.38;;;22.11
40047;BMP280;31510;48.122;11.576;2022-07-24T01:06:22;96012.09;;;22.11
40047;BMP280;31510;48.122;11.576;2022-07-24T01:08:48;96010.84;;;22.12
40047;BMP280;31510;48.122;11.576;2022-07-24T01:11:14;96011.34;;;22.10
40047;BMP280;31510;48.122;11.576;2022-07-24T01:13:40;96007.91;;;22.10
40047;BMP280;31510;48.122;11.576;2022-07-24T01:16:07;96007.66;;;22.08
40047;BMP280;31510;48.122;11.576;2022-07-24T01:18:33;96005.69;;;22.08
40047;BMP280;31510;48.122;11.576;2022-07-24T01:20:58;95999.28;;;22.06
40047;BMP280;31510;48.122;11.576;2022-07-24T01:23:24;96010.66;;;22.04
40047;BMP280;31510;48.122;11.576;2022-07-24T01:25:50;96002.00;;;22.06
40047;BMP280;31510;48.122;11.576;2022-07-24T01:28:16;96008.16;;;22.06
40047;BMP280;31510;48.122;11.576;2022-07-24T01:30:42;96005.94;;;22.05
40047;BMP280;31510;48.122;11.576;2022-07-24T01:33:07;96005.22;;;22.04
40047;BMP280;31510;48.122;11.576;2022-07-24T01:35:32;96007.94;;;22.04
40047;BMP280;31510;48.122;11.576;2022-07-24T01:37:58;95998.84;;;22.02
40047;BMP280;31510;48.122;11.576;2022-07-24T01:40:23;96003.28;;;22.00
40047;BMP280;31510;48.122;11.576;2022-07-24T01:42:49;95998.13;;;21.96
40047;BMP280;31510;48.122;11.576;2022-07-24T01:45:15;95998.88;;;21.97
40047;BMP280;31510;48.122;11.576;2022-07-24T01:47:41;95999.59;;;21.97
40047;BMP280;31510;48.122;11.576;2022-07-24T01:50:09;95997.13;;;21.99
40047;BMP280;31510;48.122;11.576;2022-07-24T01:52:34;96004.53;;;21.99
40047;BMP280;31510;48.122;11.576;2022-07-24T01:54:59;95987.72;;;22.00
40047;BMP280;31510;48.122;11.576;2022-07-24T01:57:25;95989.72;;;22.00
40047;BMP280;31510;48.122;11.576;2022-07-24T01:59:50;95990.44;;;22.00
40047;BMP280;31510;48.122;11.576;2022-07-24T02:02:16;95990.44;;;22.00
40047;BMP280;31510;48.122;11.576;2022-07-24T02:04:41;95988.97;;;21.99
40047;BMP280;31510;48.122;11.576;2022-07-24T02:07:06;95988.97;;;21.99
40047;BMP280;31510;48.122;11.576;2022-07-24T02:09:32;95986.53;;;21.96
40047;BMP280;31510;48.122;11.576;2022-07-24T02:11:57;95987.75;;;21.95
40047;BMP280;31510;48.122;11.576;2022-07-24T02:14:22;95981.38;;;21.92
40047;BMP280;31510;48.122;11.576;2022-07-24T02:16:48;95986.56;;;21.90
40047;BMP280;31510;48.122;11.576;2022-07-24T02:19:13;95984.34;;;21.89
40047;BMP280;31510;48.122;11.576;2022-07-24T02:21:39;95979.44;;;21.87
40047;BMP280;31510;48.122;11.576;2022-07-24T02:24:05;95982.88;;;21.88
40047;BMP280;31510;48.122;11.576;2022-07-24T02:26:30;95980.41;;;21.90
40047;BMP280;31510;48.122;11.576;2022-07-24T02:28:55;95979.44;;;21.87
40047;BMP280;31510;48.122;11.576;2022-07-24T02:31:22;95981.41;;;21.87
40047;BMP280;31510;48.122;11.576;2022-07-24T02:33:48;95974.00;;;21.87
40047;BMP280;31510;48.122;11.576;2022-07-24T02:36:13;95977.44;;;21.88
40047;BMP280;31510;48.122;11.576;2022-07-24T02:38:39;95980.69;;;21.86
40047;BMP280;31510;48.122;11.576;2022-07-24T02:41:04;95973.78;;;21.85
40047;BMP280;31510;48.122;11.576;2022-07-24T02:43:29;95981.19;;;21.85
40047;BMP280;31510;48.122;11.576;2022-07-24T02:45:55;95989.09;;;21.83
40047;BMP280;31510;48.122;11.576;2022-07-24T02:48:20;95980.47;;;21.79
40047;BMP280;31510;48.122;11.576;2022-07-24T02:50:46;95987.91;;;21.73
40047;BMP280;31510;48.122;11.576;2022-07-24T02:53:11;95986.69;;;21.68
40047;BMP280;31510;48.122;11.576;2022-07-24T02:55:36;95998.81;;;21.67
40047;BMP280;31510;48.122;11.576;2022-07-24T02:58:02;95998.81;;;21.67
40047;BMP280;31510;48.122;11.576;2022-07-24T03:00:28;95989.72;;;21.65
40047;BMP280;31510;48.122;11.576;2022-07-24T03:02:54;95982.78;;;21.64
40047;BMP280;31510;48.122;11.576;2022-07-24T03:05:19;95987.50;;;21.63
40047;BMP280;31510;48.122;11.576;2022-07-24T03:07:44;95980.34;;;21.61
40047;BMP280;31510;48.122;11.576;2022-07-24T03:10:11;95986.28;;;21.59
40047;BMP280;31510;48.122;11.576;2022-07-24T03:12:37;95987.78;;;21.55
40047;BMP280;31510;48.122;11.576;2022-07-24T03:15:03;95987.28;;;21.51
40047;BMP280;31510;48.122;11.576;2022-07-24T03:17:28;95989.06;;;21.48
40047;BMP280;31510;48.122;11.576;2022-07-24T03:19:53;95985.38;;;21.46
40047;BMP280;31510;48.122;11.576;2022-07-24T03:22:19;95983.16;;;21.44
40047;BMP280;31510;48.122;11.576;2022-07-24T03:24:44;95980.94;;;21.43
40047;BMP280;31510;48.122;11.576;2022-07-24T03:27:09;95990.78;;;21.40
40047;BMP280;31510;48.122;11.576;2022-07-24T03:29:35;95982.91;;;21.37
40047;BMP280;31510;48.122;11.576;2022-07-24T03:32:00;95991.78;;;21.37
40047;BMP280;31510;48.122;11.576;2022-07-24T03:34:25;95987.59;;;21.36
40047;BMP280;31510;48.122;11.576;2022-07-24T03:36:51;95985.91;;;21.33
40047;BMP280;31510;48.122;11.576;2022-07-24T03:39:16;95984.19;;;21.30
40047;BMP280;31510;48.122;11.576;2022-07-24T03:41:42;95981.97;;;21.29
40047;BMP280;31510;48.122;11.576;2022-07-24T03:44:08;95990.59;;;21.27
40047;BMP280;31510;48.122;11.576;2022-07-24T03:46:33;95987.66;;;21.25
40047;BMP280;31510;48.122;11.576;2022-07-24T03:48:59;95990.84;;;21.24
40047;BMP280;31510;48.122;11.576;2022-07-24T03:51:24;95986.41;;;21.21
40047;BMP280;31510;48.122;11.576;2022-07-24T03:53:50;95982.75;;;21.19
40047;BMP280;31510;48.122;11.576;2022-07-24T03:56:15;95988.44;;;21.15
40047;BMP280;31510;48.122;11.576;2022-07-24T03:58:41;95994.59;;;21.10
40047;BMP280;31510;48.122;11.576;2022-07-24T04:01:07;95999.06;;;21.08
40047;BMP280;31510;48.122;11.576;2022-07-24T04:03:32;96002.75;;;21.05
40047;BMP280;31510;48.122;11.576;2022-07-24T04:06:00;96003.03;;;21.01
40047;BMP280;31510;48.122;11.576;2022-07-24T04:08:26;96006.00;;;20.98
40047;BMP280;31510;48.122;11.576;2022-07-24T04:10:51;96008.47;;;20.96
40047;BMP280;31510;48.122;11.576;2022-07-24T04:13:25;96009.72;;;20.95
40047;BMP280;31510;48.122;11.576;2022-07-24T04:15:51;96012.44;;;20.95
40047;BMP280;31510;48.122;11.576;2022-07-24T04:18:16;96012.44;;;20.95
40047;BMP280;31510;48.122;11.576;2022-07-24T04:20:42;96061.38;;;21.24
40047;BMP280;31510;48.122;11.576;2022-07-24T04:23:07;96018.13;;;20.86
40047;BMP280;31510;48.122;11.576;2022-07-24T04:25:32;96025.75;;;20.82
40047;BMP280;31510;48.122;11.576;2022-07-24T04:28:03;96011.22;;;20.80
40047;BMP280;31510;48.122;11.576;2022-07-24T04:30:28;96016.41;;;20.83
40047;BMP280;31510;48.122;11.576;2022-07-24T04:32:53;96020.81;;;20.86
40047;BMP280;31510;48.122;11.576;2022-07-24T04:35:19;96017.84;;;20.89
40047;BMP280;31510;48.122;11.576;2022-07-24T04:37:44;96026.47;;;20.93
40047;BMP280;31510;48.122;11.576;2022-07-24T04:40:11;96029.91;;;20.94
40047;BMP280;31510;48.122;11.576;2022-07-24T04:42:37;96021.78;;;20.94
40047;BMP280;31510;48.122;11.576;2022-07-24T04:45:03;96032.38;;;20.97
40047;BMP280;31510;48.122;11.576;2022-07-24T04:47:28;96023.97;;;21.01
40047;BMP280;31510;48.122;11.576;2022-07-24T04:49:53;96026.69;;;21.06
40047;BMP280;31510;48.122;11.576;2022-07-24T04:52:19;96022.22;;;21.09
40047;BMP280;31510;48.122;11.576;2022-07-24T04:54:44;96019.50;;;21.09
40047;BMP280;31510;48.122;11.576;2022-07-24T04:57:09;96025.19;;;21.11
40047;BMP280;31510;48.122;11.576;2022-07-24T04:59:34;96031.09;;;21.15
40047;BMP280;31510;48.122;11.576;2022-07-24T05:02:00;96034.75;;;21.17
40047;BMP280;31510;48.122;11.576;2022-07-24T05:04:25;96030.56;;;21.22
40047;BMP280;31510;48.122;11.576;2022-07-24T05:06:50;96041.63;;;21.29
40047;BMP280;31510;48.122;11.576;2022-07-24T05:09:16;96033.72;;;21.31
40047;BMP280;31510;48.122;11.576;2022-07-24T05:11:41;96027.34;;;21.28
40047;BMP280;31510;48.122;11.576;2022-07-24T05:14:06;96037.19;;;21.26
40047;BMP280;31510;48.122;11.576;2022-07-24T05:16:32;96039.66;;;21.29
40047;BMP280;31510;48.122;11.576;2022-07-24T05:18:57;96051.50;;;21.32
40047;BMP280;31510;48.122;11.576;2022-07-24T05:21:22;96058.13;;;21.36
40047;BMP280;31510;48.122;11.576;2022-07-24T05:23:48;96047.28;;;21.36
40047;BMP280;31510;48.122;11.576;2022-07-24T05:26:13;96059.59;;;21.37
40047;BMP280;31510;48.122;11.576;2022-07-24T05:28:38;96058.34;;;21.38
40047;BMP280;31510;48.122;11.576;2022-07-24T05:31:04;96044.78;;;21.38
40047;BMP280;31510;48.122;11.576;2022-07-24T05:33:29;96050.75;;;21.42
40047;BMP280;31510;48.122;11.576;2022-07-24T05:35:55;96049.22;;;21.47
40047;BMP280;31510;48.122;11.576;2022-07-24T05:38:20;96047.00;;;21.51
40047;BMP280;31510;48.122;11.576;2022-07-24T05:40:46;96046.25;;;21.50
40047;BMP280;31510;48.122;11.576;2022-07-24T05:43:11;96056.63;;;21.46
40047;BMP280;31510;48.122;11.576;2022-07-24T05:45:36;96051.72;;;21.45
40047;BMP280;31510;48.122;11.576;2022-07-24T05:48:02;96052.66;;;21.47
40047;BMP280;31510;48.122;11.576;2022-07-24T05:50:27;96049.69;;;21.51
40047;BMP280;31510;48.122;11.576;2022-07-24T05:52:53;96048.22;;;21.55
40047;BMP280;31510;48.122;11.576;2022-07-24T05:55:18;96053.63;;;21.61
40047;BMP280;31510;48.122;11.576;2022-07-24T05:57:45;96045.22;;;21.64
40047;BMP280;31510;48.122;11.576;2022-07-24T06:00:11;96050.09;;;21.71
40047;BMP280;31510;48.122;11.576;2022-07-24T06:02:36;96045.63;;;21.73
40047;BMP280;31510;48.122;11.576;2022-07-24T06:05:02;96041.94;;;21.76
40047;BMP280;31510;48.122;11.576;2022-07-24T06:07:27;96042.41;;;21.80
40047;BMP280;31510;48.122;11.576;2022-07-24T06:09:52;96043.38;;;21.83
40047;BMP280;31510;48.122;11.576;2022-07-24T06:12:18;96041.63;;;21.85
40047;BMP280;31510;48.122;11.576;2022-07-24T06:14:43;96041.13;;;21.87
40047;BMP280;31510;48.122;11.576;2022-07-24T06:17:08;96039.13;;;21.93
40047;BMP280;31510;48.122;11.576;2022-07-24T06:19:34;96043.03;;;21.97
40047;BMP280;31510;48.122;11.576;2022-07-24T06:21:59;96049.16;;;22.03
40047;BMP280;31510;48.122;11.576;2022-07-24T06:24:24;96044.19;;;22.07
40047;BMP280;31510;48.122;11.576;2022-07-24T06:26:49;96036.78;;;22.13
40047;BMP280;31510;48.122;11.576;2022-07-24T06:29:15;96035.75;;;22.16
40047;BMP280;31510;48.122;11.576;2022-07-24T06:31:40;96039.69;;;22.20
40047;BMP280;31510;48.122;11.576;2022-07-24T06:34:06;96035.97;;;22.23
40047;BMP280;31510;48.122;11.576;2022-07-24T06:36:31;96038.94;;;22.25
40047;BMP280;31510;48.122;11.576;2022-07-24T06:38:56;96032.50;;;22.28
40047;BMP280;31510;48.122;11.576;2022-07-24T06:41:22;96036.91;;;22.31
40047;BMP280;31510;48.122;11.576;2022-07-24T06:43:47;96034.88;;;22.37
40047;BMP280;31510;48.122;11.576;2022-07-24T06:46:12;96029.19;;;22.41
40047;BMP280;31510;48.122;11.576;2022-07-24T06:48:38;96038.75;;;22.47
40047;BMP280;31510;48.122;11.576;2022-07-24T06:51:04;96037.69;;;22.55
40047;BMP280;31510;48.122;11.576;2022-07-24T06:53:29;96034.63;;;22.64
40047;BMP280;31510;48.122;11.576;2022-07-24T06:55:54;96028.47;;;22.64
40047;BMP280;31510;48.122;11.576;2022-07-24T06:58:21;96034.38;;;22.68
40047;BMP280;31510;48.122;11.576;2022-07-24T07:00:47;96023.94;;;22.72
40047;BMP280;31510;48.122;11.576;2022-07-24T07:03:13;96023.88;;;22.77
40047;BMP280;31510;48.122;11.576;2022-07-24T07:05:38;96031.53;;;22.79
40047;BMP280;31510;48.122;11.576;2022-07-24T07:08:04;96028.03;;;22.83
40047;BMP280;31510;48.122;11.576;2022-07-24T07:10:29;96026.75;;;22.90
40047;BMP280;31510;48.122;11.576;2022-07-24T07:12:55;96026.19;;;22.97
40047;BMP280;31510;48.122;11.576;2022-07-24T07:15:21;96030.53;;;23.05
40047;BMP280;31510;48.122;11.576;2022-07-24T07:17:46;96032.63;;;23.18
40047;BMP280;31510;48.122;11.576;2022-07-24T07:20:13;96025.81;;;23.29
40047;BMP280;31510;48.122;11.576;2022-07-24T07:22:39;96039.28;;;23.40
40047;BMP280;31510;48.122;11.576;2022-07-24T07:25:05;96035.03;;;23.45
40047;BMP280;31510;48.122;11.576;2022-07-24T07:27:31;96037.47;;;23.48
40047;BMP280;31510;48.122;11.576;2022-07-24T07:29:56;96038.41;;;23.51
40047;BMP280;31510;48.122;11.576;2022-07-24T07:32:22;96032.19;;;23.56
40047;BMP280;31510;48.122;11.576;2022-07-24T07:34:47;96034.13;;;23.61
40047;BMP280;31510;48.122;11.576;2022-07-24T07:37:12;96027.88;;;23.66
40047;BMP280;31510;48.122;11.576;2022-07-24T07:39:37;96031.75;;;23.70
40047;BMP280;31510;48.122;11.576;2022-07-24T07:42:03;96025.31;;;23.73
40047;BMP280;31510;48.122;11.576;2022-07-24T07:44:28;96016.31;;;23.78
40047;BMP280;31510;48.122;11.576;2022-07-24T07:46:54;96018.97;;;23.83
40047;BMP280;31510;48.122;11.576;2022-07-24T07:49:19;96021.41;;;23.87
40047;BMP280;31510;48.122;11.576;2022-07-24T07:51:44;96019.63;;;23.89
40047;BMP280;31510;48.122;11.576;2022-07-24T07:54:13;96028.47;;;23.95
40047;BMP280;31510;48.122;11.576;2022-07-24T07:56:39;96024.59;;;24.04
40047;BMP280;31510;48.122;11.576;2022-07-24T07:59:04;96023.28;;;24.10
40047;BMP280;31510;48.122;11.576;2022-07-24T08:01:30;96023.91;;;24.16
40047;BMP280;31510;48.122;11.576;2022-07-24T08:03:55;96021.03;;;24.27
40047;BMP280;31510;48.122;11.576;2022-07-24T08:06:20;96021.41;;;24.36
40047;BMP280;31510;48.122;11.576;2022-07-24T08:08:46;96028.47;;;24.45
40047;BMP280;31510;48.122;11.576;2022-07-24T08:11:11;96024.06;;;24.54
40047;BMP280;31510;48.122;11.576;2022-07-24T08:13:37;96031.22;;;24.57
40047;BMP280;31510;48.122;11.576;2022-07-24T08:16:02;96028.69;;;24.59
40047;BMP280;31510;48.122;11.576;2022-07-24T08:18:28;96028.38;;;24.63
40047;BMP280;31510;48.122;11.576;2022-07-24T08:20:53;96028.59;;;24.65
40047;BMP280;31510;48.122;11.576;2022-07-24T08:23:18;96020.84;;;24.69
40047;BMP280;31510;48.122;11.576;2022-07-24T08:25:44;96021.81;;;24.71
40047;BMP280;31510;48.122;11.576;2022-07-24T08:28:09;96025.69;;;24.76
40047;BMP280;31510;48.122;11.576;2022-07-24T08:30:34;96017.63;;;24.83
40047;BMP280;31510;48.122;11.576;2022-07-24T08:33:00;96023.50;;;24.87
40047;BMP280;31510;48.122;11.576;2022-07-24T08:35:25;96017.75;;;24.90
40047;BMP280;31510;48.122;11.576;2022-07-24T08:37:50;96025.94;;;24.90
40047;BMP280;31510;48.122;11.576;2022-07-24T08:40:16;96023.63;;;24.94
40047;BMP280;31510;48.122;11.576;2022-07-24T08:42:41;96015.66;;;24.96
40047;BMP280;31510;48.122;11.576;2022-07-24T08:45:07;96014.22;;;24.95
40047;BMP280;31510;48.122;11.576;2022-07-24T08:47:33;96018.81;;;25.00
40047;BMP280;31510;48.122;11.576;2022-07-24T08:49:59;96020.69;;;25.05
40047;BMP280;31510;48.122;11.576;2022-07-24T08:52:25;96021.56;;;25.13
40047;BMP280;31510;48.122;11.576;2022-07-24T08:54:51;96012.22;;;25.22
40047;BMP280;31510;48.122;11.576;2022-07-24T08:57:17;96008.84;;;25.28
40047;BMP280;31510;48.122;11.576;2022-07-24T08:59:42;96015.44;;;25.33
40047;BMP280;31510;48.122;11.576;2022-07-24T09:02:08;96009.69;;;25.36
40047;BMP280;31510;48.122;11.576;2022-07-24T09:04:42;96009.34;;;25.40
40047;BMP280;31510;48.122;11.576;2022-07-24T09:07:18;96003.78;;;25.45
40047;BMP280;31510;48.122;11.576;2022-07-24T09:09:57;96002.41;;;25.52
40047;BMP280;31510;48.122;11.576;2022-07-24T09:12:23;96005.03;;;25.57
40047;BMP280;31510;48.122;11.576;2022-07-24T09:14:48;96007.03;;;25.57
40047;BMP280;31510;48.122;11.576;2022-07-24T09:17:15;96011.53;;;25.54
40047;BMP280;31510;48.122;11.576;2022-07-24T09:22:38;96003.19;;;25.39
40047;BMP280;31510;48.122;11.576;2022-07-24T09:25:08;96001.41;;;25.29
40047;BMP280;31510;48.122;11.576;2022-07-24T09:27:37;95996.38;;;25.20
40047;BMP280;31510;48.122;11.576;2022-07-24T09:30:05;95996.88;;;25.19
40047;BMP280;31510;48.122;11.576;2022-07-24T09:32:31;96001.63;;;25.18
40047;BMP280;31510;48.122;11.576;2022-07-24T09:34:56;95994.38;;;25.21
40047;BMP280;31510;48.122;11.576;2022-07-24T09:37:22;96002.31;;;25.31
40047;BMP280;31510;48.122;11.576;2022-07-24T09:39:48;95995.50;;;25.38
40047;BMP280;31510;48.122;11.576;2022-07-24T09:42:13;95995.50;;;25.38
40047;BMP280;31510;48.122;11.576;2022-07-24T09:44:39;95994.03;;;25.37
40047;BMP280;31510;48.122;11.576;2022-07-24T09:47:07;95990.88;;;25.46
40047;BMP280;31510;48.122;11.576;2022-07-24T09:49:33;95995.56;;;25.58
40047;BMP280;31510;48.122;11.576;2022-07-24T09:54:31;95987.59;;;25.73
40047;BMP280;31510;48.122;11.576;2022-07-24T09:59:40;95985.19;;;25.90
40047;BMP280;31510;48.122;11.576;2022-07-24T10:02:07;95976.88;;;25.95
40047;BMP280;31510;48.122;11.576;2022-07-24T10:04:34;95969.09;;;25.99
40047;BMP280;31510;48.122;11.576;2022-07-24T10:07:02;95979.50;;;26.01
40047;BMP280;31510;48.122;11.576;2022-07-24T10:09:29;95975.69;;;26.04
40047;BMP280;31510;48.122;11.576;2022-07-24T10:11:57;95975.38;;;26.07
40047;BMP280;31510;48.122;11.576;2022-07-24T10:14:24;95970.66;;;26.08
40047;BMP280;31510;48.122;11.576;2022-07-24T10:17:06;95972.63;;;26.07
40047;BMP280;31510;48.122;11.576;2022-07-24T10:19:50;95967.69;;;26.06
40047;BMP280;31510;48.122;11.576;2022-07-24T10:22:21;95971.38;;;26.08
40047;BMP280;31510;48.122;11.576;2022-07-24T10:24:59;95971.25;;;26.13
40047;BMP280;31510;48.122;11.576;2022-07-24T10:27:32;95978.78;;;26.20
40047;BMP280;31510;48.122;11.576;2022-07-24T10:30:00;95971.94;;;26.27
40047;BMP280;31510;48.122;11.576;2022-07-24T10:32:27;95966.75;;;26.36
40047;BMP280;31510;48.122;11.576;2022-07-24T10:35:06;95962.94;;;26.39
40047;BMP280;31510;48.122;11.576;2022-07-24T10:37:39;95954.13;;;26.33
40047;BMP280;31510;48.122;11.576;2022-07-24T10:40:20;95959.75;;;26.28
40047;BMP280;31510;48.122;11.576;2022-07-24T10:53:27;95948.09;;;26.14
40047;BMP280;31510;48.122;11.576;2022-07-24T10:59:01;95947.81;;;26.38
40047;BMP280;31510;48.122;11.576;2022-07-24T11:03:52;95948.47;;;26.51
40047;BMP280;31510;48.122;11.576;2022-07-24T11:06:17;95942.09;;;26.56
40047;BMP280;31510;48.122;11.576;2022-07-24T11:08:50;95940.16;;;26.64
40047;BMP280;31510;48.122;11.576;2022-07-24T11:11:18;95933.41;;;26.65
40047;BMP280;31510;48.122;11.576;2022-07-24T11:13:49;95942.03;;;26.69
40047;BMP280;31510;48.122;11.576;2022-07-24T11:21:33;95920.97;;;26.85
40047;BMP280;31510;48.122;11.576;2022-07-24T11:29:52;95923.03;;;26.91
40047;BMP280;31510;48.122;11.576;2022-07-24T11:32:18;95917.81;;;27.01
40047;BMP280;31510;48.122;11.576;2022-07-24T11:34:46;95919.09;;;27.07
40047;BMP280;31510;48.122;11.576;2022-07-24T11:37:12;95914.56;;;27.10
40047;BMP280;31510;48.122;11.576;2022-07-24T11:39:40;95915.66;;;27.14
40047;BMP280;31510;48.122;11.576;2022-07-24T11:42:08;95915.31;;;27.18
40047;BMP280;31510;48.122;11.576;2022-07-24T11:44:44;95913.88;;;27.24
40047;BMP280;31510;48.122;11.576;2022-07-24T11:49:46;95903.72;;;27.39
40047;BMP280;31510;48.122;11.576;2022-07-24T11:52:18;95905.63;;;27.52
40047;BMP280;31510;48.122;11.576;2022-07-24T11:54:44;95892.66;;;27.60
40047;BMP280;31510;48.122;11.576;2022-07-24T11:57:18;95902.91;;;27.67
40047;BMP280;31510;48.122;11.576;2022-07-24T11:59:44;95899.09;;;27.77
40047;BMP280;31510;48.122;11.576;2022-07-24T12:02:11;95888.13;;;27.77
40047;BMP280;31510;48.122;11.576;2022-07-24T12:04:38;95894.88;;;27.76
40047;BMP280;31510;48.122;11.576;2022-07-24T12:07:09;95893.44;;;27.82
40047;BMP280;31510;48.122;11.576;2022-07-24T12:09:58;95890.34;;;27.93
40047;BMP280;31510;48.122;11.576;2022-07-24T12:12:29;95889.63;;;28.00
40047;BMP280;31510;48.122;11.576;2022-07-24T12:15:03;95894.22;;;28.05
40047;BMP280;31510;48.122;11.576;2022-07-24T12:17:30;95889.84;;;28.10
40047;BMP280;31510;48.122;11.576;2022-07-24T12:19:57;95889.50;;;28.13
40047;BMP280;31510;48.122;11.576;2022-07-24T12:22:23;95881.44;;;28.22
40047;BMP280;31510;48.122;11.576;2022-07-24T12:24:50;95875.59;;;28.26
40047;BMP280;31510;48.122;11.576;2022-07-24T12:27:40;95872.84;;;28.18
40047;BMP280;31510;48.122;11.576;2022-07-24T12:30:22;95881.78;;;28.04
40047;BMP280;31510;48.122;11.576;2022-07-24T12:32:59;95875.38;;;27.87
40047;BMP280;31510;48.122;11.576;2022-07-24T12:35:26;95872.59;;;27.72
40047;BMP280;31510;48.122;11.576;2022-07-24T12:37:52;95871.34;;;27.66
40047;BMP280;31510;48.122;11.576;2022-07-24T12:40:26;95862.56;;;27.74
40047;BMP280;31510;48.122;11.576;2022-07-24T12:43:08;95867.34;;;27.96
40047;BMP280;31510;48.122;11.576;2022-07-24T12:45:34;95865.53;;;28.13
40047;BMP280;31510;48.122;11.576;2022-07-24T12:48:18;95865.91;;;28.25
40047;BMP280;31510;48.122;11.576;2022-07-24T12:50:58;95856.19;;;28.39
40047;BMP280;31510;48.122;11.576;2022-07-24T12:53:26;95857.28;;;28.51
40047;BMP280;31510;48.122;11.576;2022-07-24T13:01:18;95839.84;;;28.85
40047;BMP280;31510;48.122;11.576;2022-07-24T13:03:58;95839.81;;;28.93
40047;BMP280;31510;48.122;11.576;2022-07-24T13:06:35;95838.84;;;29.05
40047;BMP280;31510;48.122;11.576;2022-07-24T13:09:03;95566.94;;;27.32
40047;BMP280;31510;48.122;11.576;2022-07-24T13:11:29;95834.75;;;29.28
40047;BMP280;31510;48.122;11.576;2022-07-24T13:13:54;95825.72;;;29.35
40047;BMP280;31510;48.122;11.576;2022-07-24T13:16:20;95809.75;;;29.41
40047;BMP280;31510;48.122;11.576;2022-07-24T13:18:45;95820.13;;;29.50
40047;BMP280;31510;48.122;11.576;2022-07-24T13:21:10;95821.16;;;29.62
40047;BMP280;31510;48.122;11.576;2022-07-24T13:23:36;95809.78;;;29.65
40047;BMP280;31510;48.122;11.576;2022-07-24T13:26:01;95808.28;;;29.72
40047;BMP280;31510;48.122;11.576;2022-07-24T13:28:27;95806.44;;;29.74
40047;BMP280;31510;48.122;11.576;2022-07-24T13:30:52;95814.63;;;29.81
40047;BMP280;31510;48.122;11.576;2022-07-24T13:33:17;95805.28;;;29.84
40047;BMP280;31510;48.122;11.576;2022-07-24T13:35:43;95805.03;;;29.90
40047;BMP280;31510;48.122;11.576;2022-07-24T13:38:08;95801.13;;;30.00
40047;BMP280;31510;48.122;11.576;2022-07-24T13:40:33;95793.19;;;30.04
40047;BMP280;31510;48.122;11.576;2022-07-24T13:42:58;95783.97;;;30.09
40047;BMP280;31510;48.122;11.576;2022-07-24T13:45:24;95783.34;;;30.01
40047;BMP280;31510;48.122;11.576;2022-07-24T13:47:49;95786.13;;;29.94
40047;BMP280;31510;48.122;11.576;2022-07-24T13:50:14;95785.56;;;29.95
40047;BMP280;31510;48.122;11.576;2022-07-24T13:52:40;95774.34;;;30.01
40047;BMP280;31510;48.122;11.576;2022-07-24T13:55:06;95779.84;;;30.01
40047;BMP280;31510;48.122;11.576;2022-07-24T13:57:31;95778.06;;;29.96
40047;BMP280;31510;48.122;11.576;2022-07-24T13:59:57;95783.44;;;29.86
40047;BMP280;31510;48.122;11.576;2022-07-24T14:02:22;95777.34;;;29.71
40047;BMP280;31510;48.122;11.576;2022-07-24T14:04:47;95772.44;;;29.62
40047;BMP280;31510;48.122;11.576;2022-07-24T14:07:13;95764.63;;;29.51
40047;BMP280;31510;48.122;11.576;2022-07-24T14:09:38;95774.81;;;29.41
40047;BMP280;31510;48.122;11.576;2022-07-24T14:12:04;95766.09;;;29.28
40047;BMP280;31510;48.122;11.576;2022-07-24T14:14:29;95763.03;;;29.17
40047;BMP280;31510;48.122;11.576;2022-07-24T14:16:55;95748.94;;;29.13
40047;BMP280;31510;48.122;11.576;2022-07-24T14:19:21;95754.25;;;29.11
40047;BMP280;31510;48.122;11.576;2022-07-24T14:21:46;95752.66;;;29.08
40047;BMP280;31510;48.122;11.576;2022-07-24T14:24:13;95758.00;;;28.98
40047;BMP280;31510;48.122;11.576;2022-07-24T14:26:39;95753.59;;;28.95
40047;BMP280;31510;48.122;11.576;2022-07-24T14:29:04;95743.00;;;28.99
40047;BMP280;31510;48.122;11.576;2022-07-24T14:31:29;95740.25;;;28.99
40047;BMP280;31510;48.122;11.576;2022-07-24T14:33:55;95745.38;;;28.95
40047;BMP280;31510;48.122;11.576;2022-07-24T14:36:20;95749.06;;;28.91